createdAt,value
2023-03-29T00:01:35.210Z,101197.75
2023-03-29T00:04:06.292Z,101199.84
2023-03-29T00:06:33.610Z,101192.97
2023-03-29T00:09:01.801Z,101189.31
2023-03-29T00:11:28.362Z,101191.91
2023-03-29T00:13:54.911Z,101193.88
2023-03-29T00:16:21.425Z,101182.22
2023-03-29T00:18:48.062Z,101182.22
2023-03-29T00:21:14.519Z,101181.84
2023-03-29T00:23:41.086Z,101178.81
2023-03-29T00:26:08.378Z,101182.78
2023-03-29T00:28:35.581Z,101185.59
2023-03-29T00:31:14.106Z,101189.09
2023-03-29T00:33:41.428Z,101186.75
2023-03-29T00:36:09.081Z,101178.56
2023-03-29T00:38:36.050Z,101183.25
2023-03-29T00:41:04.300Z,101184.31
2023-03-29T00:43:31.034Z,101183.50
2023-03-29T00:45:57.485Z,101179.53
2023-03-29T00:48:27.921Z,101173.78
2023-03-29T00:51:03.476Z,101177.38
2023-03-29T00:53:34.475Z,101165.81
2023-03-29T00:56:06.313Z,101171.56
2023-03-29T00:58:57.180Z,101169.91
2023-03-29T01:01:35.509Z,101161.63
2023-03-29T01:04:18.158Z,101153.56
2023-03-29T01:07:01.270Z,101149.22
2023-03-29T01:09:31.092Z,101147.34
2023-03-29T01:12:01.636Z,101139.44
2023-03-29T01:14:43.753Z,101142.50
2023-03-29T01:17:10.917Z,101136.84
2023-03-29T01:19:44.382Z,101131.72
2023-03-29T01:22:51.339Z,101127.63
2023-03-29T01:25:45.450Z,101126.22
2023-03-29T01:28:17.544Z,101115.84
2023-03-29T01:30:49.890Z,101104.34
2023-03-29T01:33:24.572Z,101102.84
2023-03-29T01:36:09.608Z,101091.16
2023-03-29T01:38:43.152Z,101089.03
2023-03-29T01:41:10.978Z,101084.97
2023-03-29T01:43:40.561Z,101086.00
2023-03-29T01:46:27.754Z,101073.75
2023-03-29T01:49:11.143Z,101077.25
2023-03-29T01:51:42.381Z,101085.66
2023-03-29T01:54:44.487Z,101077.38
2023-03-29T01:57:12.349Z,101071.16
2023-03-29T01:59:42.380Z,101058.53
2023-03-29T02:02:14.663Z,101057.09
2023-03-29T02:04:48.021Z,101053.94
2023-03-29T02:07:17.066Z,101049.38
2023-03-29T02:09:45.198Z,101051.84
2023-03-29T02:12:13.621Z,101050.22
2023-03-29T02:14:40.453Z,101048.81
2023-03-29T02:17:23.542Z,101045.78
2023-03-29T02:19:59.339Z,101037.47
2023-03-29T02:22:36.630Z,101035.25
2023-03-29T02:25:08.331Z,101032.91
2023-03-29T02:27:37.733Z,101028.34
2023-03-29T02:30:06.652Z,101023.94
2023-03-29T02:32:49.356Z,101019.41
2023-03-29T02:35:34.468Z,101023.84
2023-03-29T02:38:04.718Z,101021.28
2023-03-29T02:40:33.233Z,101020.19
2023-03-29T02:43:02.063Z,101019.28
2023-03-29T02:45:30.039Z,101017.66
2023-03-29T02:48:00.468Z,101010.56
2023-03-29T02:50:37.637Z,101024.22
2023-03-29T02:53:10.251Z,101013.22
2023-03-29T02:55:38.945Z,101013.66
2023-03-29T02:58:08.440Z,101002.09
2023-03-29T03:00:42.091Z,101002.56
2023-03-29T03:03:10.323Z,101004.88
2023-03-29T03:05:37.303Z,101002.41
2023-03-29T03:08:04.969Z,100984.94
2023-03-29T03:10:33.218Z,100977.84
2023-03-29T03:12:59.662Z,100972.81
2023-03-29T03:15:26.394Z,100987.38
2023-03-29T03:17:54.429Z,100980.47
2023-03-29T03:20:23.875Z,100976.56
2023-03-29T03:22:50.487Z,100980.88
2023-03-29T03:25:20.694Z,100977.69
2023-03-29T03:27:49.089Z,100967.84
2023-03-29T03:30:16.630Z,100970.06
2023-03-29T03:32:49.363Z,100962.88
2023-03-29T03:35:16.264Z,100973.50
2023-03-29T03:37:42.955Z,100975.84
2023-03-29T03:40:11.674Z,100969.31
2023-03-29T03:42:39.306Z,100968.25
2023-03-29T03:45:06.395Z,100958.66
2023-03-29T03:47:32.838Z,100960.28
2023-03-29T03:49:59.515Z,100961.09
2023-03-29T03:52:26.957Z,100960.13
2023-03-29T03:54:53.428Z,100961.09
2023-03-29T03:57:19.951Z,100962.50
2023-03-29T03:59:46.562Z,100964.38
2023-03-29T04:02:13.065Z,100957.78
2023-03-29T04:04:40.537Z,100959.31
2023-03-29T04:07:07.530Z,100958.50
2023-03-29T04:09:34.411Z,100970.81
2023-03-29T04:12:01.621Z,100968.88
2023-03-29T04:14:28.459Z,100974.81
2023-03-29T04:16:55.500Z,100970.22
2023-03-29T04:19:22.070Z,100977.56
2023-03-29T04:21:49.603Z,100974.06
2023-03-29T04:24:17.231Z,100970.09
2023-03-29T04:26:44.303Z,100974.66
2023-03-29T04:29:10.915Z,100975.47
2023-03-29T04:31:37.533Z,100972.53
2023-03-29T04:34:04.483Z,100970.47
2023-03-29T04:36:30.966Z,100962.50
2023-03-29T04:38:58.581Z,100963.56
2023-03-29T04:41:25.125Z,100964.84
2023-03-29T04:43:52.029Z,100962.00
2023-03-29T04:46:18.560Z,100952.84
2023-03-29T04:48:45.098Z,100953.66
2023-03-29T04:51:11.684Z,100955.81
2023-03-29T04:53:38.209Z,100953.84
2023-03-29T04:56:05.047Z,100948.91
2023-03-29T04:58:32.426Z,100953.69
2023-03-29T05:00:59.471Z,100936.16
2023-03-29T05:03:27.021Z,100945.44
2023-03-29T05:05:53.684Z,100946.59
2023-03-29T05:08:20.133Z,100942.59
2023-03-29T05:10:47.597Z,100946.94
2023-03-29T05:13:14.084Z,100935.84
2023-03-29T05:15:41.784Z,100936.66
2023-03-29T05:18:08.297Z,100941.22
2023-03-29T05:20:34.903Z,100940.06
2023-03-29T05:23:01.441Z,100932.75
2023-03-29T05:25:28.180Z,100923.91
2023-03-29T05:27:55.303Z,100925.63
2023-03-29T05:30:22.464Z,100929.16
2023-03-29T05:32:49.202Z,100929.44
2023-03-29T05:35:16.072Z,100929.44
2023-03-29T05:37:42.542Z,100924.81
2023-03-29T05:40:09.898Z,100925.41
2023-03-29T05:42:38.011Z,100928.16
2023-03-29T05:45:05.079Z,100918.78
2023-03-29T05:47:31.731Z,100911.50
2023-03-29T05:49:58.265Z,100906.75
2023-03-29T05:52:24.815Z,100903.44
2023-03-29T05:54:51.542Z,100904.25
2023-03-29T05:57:18.051Z,100897.22
2023-03-29T05:59:44.888Z,100899.59
2023-03-29T06:02:12.317Z,100899.69
2023-03-29T06:04:39.992Z,100895.50
2023-03-29T06:07:12.827Z,100900.97
2023-03-29T06:09:46.123Z,100906.97
2023-03-29T06:12:14.071Z,100920.25
2023-03-29T06:14:40.723Z,100914.63
2023-03-29T06:17:07.279Z,100910.09
2023-03-29T06:19:33.992Z,100907.50
2023-03-29T06:22:00.651Z,100897.53
2023-03-29T06:24:27.167Z,100902.72
2023-03-29T06:26:53.708Z,100902.41
2023-03-29T06:29:20.238Z,100896.19
2023-03-29T06:31:46.788Z,100890.56
2023-03-29T06:34:13.781Z,100889.81
2023-03-29T06:36:40.218Z,100892.88
2023-03-29T06:39:06.646Z,100889.13
2023-03-29T06:41:33.145Z,100888.25
2023-03-29T06:43:59.679Z,100901.03
2023-03-29T06:46:26.219Z,100900.56
2023-03-29T06:48:53.291Z,100894.22
2023-03-29T06:51:21.912Z,100897.16
2023-03-29T06:53:49.732Z,100899.72
2023-03-29T06:56:17.603Z,100893.31
2023-03-29T06:58:44.971Z,100891.19
2023-03-29T07:01:11.503Z,100887.44
2023-03-29T07:03:39.365Z,100882.63
2023-03-29T07:06:10.083Z,100894.44
2023-03-29T07:08:47.369Z,100898.56
2023-03-29T07:11:15.066Z,100887.22
2023-03-29T07:13:42.595Z,100883.03
2023-03-29T07:16:13.823Z,100880.13
2023-03-29T07:18:41.752Z,100883.63
2023-03-29T07:21:09.415Z,100882.59
2023-03-29T07:23:36.096Z,100883.28
2023-03-29T07:26:02.676Z,100883.41
2023-03-29T07:28:29.715Z,100888.84
2023-03-29T07:31:07.202Z,100884.03
2023-03-29T07:33:34.467Z,100886.53
2023-03-29T07:36:01.955Z,100892.22
2023-03-29T07:38:28.621Z,100901.47
2023-03-29T07:40:55.126Z,100901.16
2023-03-29T07:43:21.975Z,100905.47
2023-03-29T07:45:48.662Z,100904.47
2023-03-29T07:48:15.810Z,100903.94
2023-03-29T07:50:43.212Z,100901.22
2023-03-29T07:53:10.251Z,100898.56
2023-03-29T07:55:37.092Z,100907.53
2023-03-29T07:58:04.310Z,100907.47
2023-03-29T08:00:30.819Z,100904.00
2023-03-29T08:02:57.573Z,100900.22
2023-03-29T08:05:37.907Z,100914.00
2023-03-29T08:08:07.388Z,100907.00
2023-03-29T08:10:34.273Z,100909.97
2023-03-29T08:13:01.020Z,100904.31
2023-03-29T08:15:28.029Z,100911.94
2023-03-29T08:17:54.692Z,100903.81
2023-03-29T08:20:21.303Z,100895.47
2023-03-29T08:22:48.809Z,100892.25
2023-03-29T08:25:15.285Z,100893.88
2023-03-29T08:27:42.430Z,100889.00
2023-03-29T08:30:09.568Z,100887.16
2023-03-29T08:32:37.497Z,100891.47
2023-03-29T08:35:06.647Z,100891.19
2023-03-29T08:37:33.285Z,100888.53
2023-03-29T08:40:01.042Z,100895.56
2023-03-29T08:42:36.784Z,100879.63
2023-03-29T08:45:31.526Z,100881.50
2023-03-29T08:48:22.876Z,100875.84
2023-03-29T08:50:53.859Z,100867.78
2023-03-29T08:53:29.106Z,100861.00
2023-03-29T08:55:56.986Z,100856.13
2023-03-29T08:58:29.103Z,100850.75
2023-03-29T09:00:58.641Z,100850.75
2023-03-29T09:03:38.097Z,100849.41
2023-03-29T09:06:08.708Z,100854.00
2023-03-29T09:08:39.033Z,100854.00
2023-03-29T09:11:23.954Z,100852.63
2023-03-29T09:14:15.733Z,100852.34
2023-03-29T09:16:58.413Z,100846.09
2023-03-29T09:19:42.635Z,100853.44
2023-03-29T09:22:28.018Z,100852.06
2023-03-29T09:24:54.434Z,100849.34
2023-03-29T09:27:26.720Z,100846.38
2023-03-29T09:30:06.130Z,100850.41
2023-03-29T09:32:39.457Z,100845.78
2023-03-29T09:35:37.142Z,100843.34
2023-03-29T09:38:07.679Z,100844.88
2023-03-29T09:40:44.499Z,100840.22
2023-03-29T09:43:18.352Z,100847.81
2023-03-29T09:45:53.061Z,100849.72
2023-03-29T09:48:20.767Z,100847.81
2023-03-29T09:50:51.359Z,100845.16
2023-03-29T09:53:19.534Z,100843.50
2023-03-29T09:55:50.324Z,100837.97
2023-03-29T09:58:22.515Z,100844.59
2023-03-29T10:00:50.032Z,100827.47
2023-03-29T10:03:35.031Z,100834.81
2023-03-29T10:06:03.619Z,100828.88
2023-03-29T10:08:36.778Z,100831.59
2023-03-29T10:11:14.657Z,100830.25
2023-03-29T10:13:49.207Z,100836.75
2023-03-29T10:16:25.719Z,100825.41
2023-03-29T10:18:54.569Z,100823.75
2023-03-29T10:21:22.039Z,100822.38
2023-03-29T10:23:50.228Z,100822.09
2023-03-29T10:26:32.605Z,100813.41
2023-03-29T10:29:01.765Z,100825.38
2023-03-29T10:31:32.901Z,100812.81
2023-03-29T10:34:06.400Z,100803.81
2023-03-29T10:36:33.263Z,100802.34
2023-03-29T10:39:05.114Z,100805.78
2023-03-29T10:41:34.627Z,100791.50
2023-03-29T10:44:02.053Z,100792.72
2023-03-29T10:46:30.260Z,100790.97
2023-03-29T10:49:02.569Z,100789.59
2023-03-29T10:51:32.498Z,100781.44
2023-03-29T10:53:59.545Z,100776.75
2023-03-29T10:56:39.077Z,100776.13
2023-03-29T10:59:31.648Z,100779.94
2023-03-29T11:02:42.189Z,100767.41
2023-03-29T11:05:24.641Z,100764.25
2023-03-29T11:08:14.897Z,100747.09
2023-03-29T11:10:55.888Z,100750.03
2023-03-29T11:13:31.489Z,100757.41
2023-03-29T11:16:13.358Z,100744.06
2023-03-29T11:19:03.679Z,100746.50
2023-03-29T11:21:51.576Z,100753.34
2023-03-29T11:24:33.931Z,100746.66
2023-03-29T11:27:16.102Z,100746.84
2023-03-29T11:29:58.615Z,100745.97
2023-03-29T11:32:41.278Z,100749.59
2023-03-29T11:35:29.981Z,100748.41
2023-03-29T11:38:10.163Z,100745.66
2023-03-29T11:41:02.766Z,100738.97
2023-03-29T11:43:35.463Z,100746.63
2023-03-29T11:46:23.587Z,100745.97
2023-03-29T11:48:52.827Z,100746.34
2023-03-29T11:51:37.912Z,100740.72
2023-03-29T11:54:23.947Z,100726.63
2023-03-29T11:56:59.541Z,100735.84
2023-03-29T12:00:12.279Z,100732.59
2023-03-29T12:02:50.868Z,100729.69
2023-03-29T12:05:27.344Z,100719.00
2023-03-29T12:08:02.017Z,100716.09
2023-03-29T12:10:54.445Z,100707.66
2023-03-29T12:13:23.886Z,100698.97
2023-03-29T12:16:00.266Z,100700.19
2023-03-29T12:18:41.060Z,100695.53
2023-03-29T12:21:13.255Z,100690.59
2023-03-29T12:23:41.976Z,100686.16
2023-03-29T12:26:34.821Z,100689.56
2023-03-29T12:29:25.543Z,100682.38
2023-03-29T12:32:28.442Z,100678.53
2023-03-29T12:35:26.984Z,100680.78
2023-03-29T12:38:16.232Z,100676.44
2023-03-29T12:40:46.396Z,100677.09
2023-03-29T12:43:26.180Z,100668.16
2023-03-29T12:46:14.508Z,100667.72
2023-03-29T12:48:42.613Z,100656.56
2023-03-29T12:51:16.095Z,100662.28
2023-03-29T12:54:08.517Z,100655.78
2023-03-29T12:56:41.504Z,100664.22
2023-03-29T12:59:11.608Z,100669.03
2023-03-29T13:01:41.487Z,100659.31
2023-03-29T13:04:21.616Z,100664.09
2023-03-29T13:07:05.708Z,100668.44
2023-03-29T13:09:55.032Z,100652.66
2023-03-29T13:12:40.504Z,100656.91
2023-03-29T13:15:18.958Z,100646.03
2023-03-29T13:18:03.605Z,100643.97
2023-03-29T13:20:42.154Z,100641.91
2023-03-29T13:23:37.781Z,100636.66
2023-03-29T13:26:42.748Z,100645.28
2023-03-29T13:29:17.136Z,100642.75
2023-03-29T13:31:51.802Z,100639.91
2023-03-29T13:34:37.686Z,100627.59
2023-03-29T13:37:33.871Z,100637.88
2023-03-29T13:40:00.382Z,100635.66
2023-03-29T13:42:32.955Z,100638.19
2023-03-29T13:45:13.193Z,100623.13
2023-03-29T13:47:58.818Z,100626.72
2023-03-29T13:50:57.146Z,100631.69
2023-03-29T13:53:45.648Z,100631.06
2023-03-29T13:56:19.624Z,100628.81
2023-03-29T13:58:53.505Z,100625.75
2023-03-29T14:01:36.366Z,100616.78
2023-03-29T14:04:05.987Z,100617.88
2023-03-29T14:06:37.150Z,100613.19
2023-03-29T14:09:07.182Z,100613.78
2023-03-29T14:11:34.692Z,100609.16
2023-03-29T14:14:05.485Z,100619.78
2023-03-29T14:16:36.812Z,100626.75
2023-03-29T14:19:07.590Z,100618.06
2023-03-29T14:21:34.183Z,100614.81
2023-03-29T14:24:02.282Z,100622.56
2023-03-29T14:26:34.502Z,100629.81
2023-03-29T14:29:02.458Z,100615.78
2023-03-29T14:31:37.246Z,100614.00
2023-03-29T14:34:06.663Z,100606.28
2023-03-29T14:36:33.802Z,100600.81
2023-03-29T14:39:05.466Z,100599.84
2023-03-29T14:41:34.335Z,100605.47
2023-03-29T14:44:01.495Z,100596.94
2023-03-29T14:46:28.213Z,100596.66
2023-03-29T14:48:56.346Z,100585.06
2023-03-29T14:51:28.553Z,100586.97
2023-03-29T14:54:05.546Z,100579.06
2023-03-29T14:56:33.194Z,100572.47
2023-03-29T14:59:03.560Z,100567.19
2023-03-29T15:01:30.193Z,100566.03
2023-03-29T15:04:01.969Z,100572.13
2023-03-29T15:06:29.927Z,100574.53
2023-03-29T15:09:06.211Z,100573.56
2023-03-29T15:11:34.465Z,100572.72
2023-03-29T15:14:05.889Z,100577.03
2023-03-29T15:16:33.658Z,100584.41
2023-03-29T15:19:01.836Z,100573.41
2023-03-29T15:21:34.337Z,100574.19
2023-03-29T15:24:04.113Z,100581.69
2023-03-29T15:26:31.660Z,100579.09
2023-03-29T15:29:23.605Z,100571.69
2023-03-29T15:31:57.619Z,100576.66
2023-03-29T15:34:27.000Z,100585.00
2023-03-29T15:36:54.290Z,100585.97
2023-03-29T15:39:20.916Z,100581.63
2023-03-29T15:41:50.226Z,100579.03
2023-03-29T15:44:18.037Z,100578.16
2023-03-29T15:46:44.835Z,100575.09
2023-03-29T15:49:12.357Z,100565.75
2023-03-29T15:51:39.714Z,100568.16
2023-03-29T15:54:06.458Z,100569.22
2023-03-29T15:56:37.816Z,100560.38
2023-03-29T15:59:04.751Z,100561.91
2023-03-29T16:01:34.599Z,100552.75
2023-03-29T16:04:03.113Z,100557.09
2023-03-29T16:06:30.305Z,100555.97
2023-03-29T16:08:57.516Z,100553.41
2023-03-29T16:11:24.626Z,100542.50
2023-03-29T16:13:51.453Z,100539.94
2023-03-29T16:16:18.073Z,100534.78
2023-03-29T16:18:44.631Z,100535.88
2023-03-29T16:21:15.935Z,100525.28
2023-03-29T16:23:42.924Z,100524.97
2023-03-29T16:26:12.137Z,100531.44
2023-03-29T16:28:38.721Z,100531.91
2023-03-29T16:31:06.129Z,100524.03
2023-03-29T16:33:32.875Z,100527.00
2023-03-29T16:35:59.387Z,100521.88
2023-03-29T16:38:25.884Z,100529.69
2023-03-29T16:40:52.605Z,100531.00
2023-03-29T16:43:19.555Z,100542.00
2023-03-29T16:45:46.298Z,100528.53
2023-03-29T16:48:18.005Z,100522.47
2023-03-29T16:50:49.374Z,100525.44
2023-03-29T16:53:16.814Z,100522.22
2023-03-29T16:55:45.645Z,100519.03
2023-03-29T16:58:12.110Z,100511.78
2023-03-29T17:00:38.622Z,100507.72
2023-03-29T17:03:05.301Z,100509.16
2023-03-29T17:05:33.341Z,100508.16
2023-03-29T17:07:59.944Z,100502.81
2023-03-29T17:10:26.387Z,100501.09
2023-03-29T17:12:52.859Z,100498.88
2023-03-29T17:15:19.348Z,100500.72
2023-03-29T17:17:46.011Z,100507.06
2023-03-29T17:20:12.658Z,100501.72
2023-03-29T17:22:40.335Z,100506.97
2023-03-29T17:25:08.291Z,100506.91
2023-03-29T17:27:37.288Z,100506.50
2023-03-29T17:30:05.642Z,100508.03
2023-03-29T17:32:32.372Z,100509.56
2023-03-29T17:34:59.364Z,100516.19
2023-03-29T17:37:27.792Z,100512.78
2023-03-29T17:39:54.606Z,100516.09
2023-03-29T17:42:21.191Z,100514.91
2023-03-29T17:44:47.636Z,100519.09
2023-03-29T17:47:14.167Z,100521.13
2023-03-29T17:49:40.594Z,100527.16
2023-03-29T17:52:07.080Z,100527.66
2023-03-29T17:54:33.558Z,100529.28
2023-03-29T17:57:00.152Z,100531.38
2023-03-29T17:59:26.809Z,100531.16
2023-03-29T18:01:53.479Z,100522.88
2023-03-29T18:04:20.032Z,100527.81
2023-03-29T18:06:46.494Z,100533.81
2023-03-29T18:09:13.153Z,100531.22
2023-03-29T18:11:39.640Z,100525.25
2023-03-29T18:14:06.344Z,100524.97
2023-03-29T18:16:33.098Z,100534.22
2023-03-29T18:18:59.754Z,100525.84
2023-03-29T18:21:27.413Z,100523.22
2023-03-29T18:23:56.644Z,100518.66
2023-03-29T18:26:23.517Z,100522.84
2023-03-29T18:28:50.897Z,100522.53
2023-03-29T18:31:19.069Z,100521.81
2023-03-29T18:33:46.820Z,100527.31
2023-03-29T18:36:13.993Z,100530.94
2023-03-29T18:38:42.981Z,100537.53
2023-03-29T18:41:12.059Z,100533.94
2023-03-29T18:43:39.858Z,100526.16
2023-03-29T18:46:07.827Z,100538.03
2023-03-29T18:48:39.494Z,100527.75
2023-03-29T18:51:07.442Z,100520.19
2023-03-29T18:53:35.791Z,100522.09
2023-03-29T18:56:03.443Z,100527.34
2023-03-29T18:58:30.634Z,100526.00
2023-03-29T19:01:02.074Z,100517.94
2023-03-29T19:03:28.775Z,100520.28
2023-03-29T19:05:55.566Z,100518.38
2023-03-29T19:08:23.174Z,100503.19
2023-03-29T19:10:50.102Z,100509.44
2023-03-29T19:13:16.730Z,100510.00
2023-03-29T19:15:43.272Z,100505.97
2023-03-29T19:18:10.087Z,100501.06
2023-03-29T19:20:36.962Z,100499.25
2023-03-29T19:23:04.450Z,100487.03
2023-03-29T19:25:31.445Z,100490.63
2023-03-29T19:27:57.936Z,100482.72
2023-03-29T19:30:25.760Z,100484.09
2023-03-29T19:32:52.846Z,100481.38
2023-03-29T19:35:19.582Z,100480.00
2023-03-29T19:37:46.217Z,100474.19
2023-03-29T19:40:13.597Z,100478.22
2023-03-29T19:42:43.306Z,100474.00
2023-03-29T19:45:10.236Z,100472.38
2023-03-29T19:47:37.178Z,100468.63
2023-03-29T19:50:04.892Z,100470.53
2023-03-29T19:52:31.440Z,100470.94
2023-03-29T19:55:00.825Z,100466.94
2023-03-29T19:57:28.231Z,100465.63
2023-03-29T19:59:54.771Z,100465.84
2023-03-29T20:02:21.310Z,100456.09
2023-03-29T20:04:47.728Z,100450.72
2023-03-29T20:07:14.439Z,100450.50
2023-03-29T20:09:44.634Z,100446.16
2023-03-29T20:12:11.912Z,100439.44
2023-03-29T20:14:40.158Z,100431.28
2023-03-29T20:17:07.284Z,100434.59
2023-03-29T20:19:36.497Z,100435.69
2023-03-29T20:22:04.410Z,100434.19
2023-03-29T20:24:32.500Z,100438.81
2023-03-29T20:26:59.049Z,100440.53
2023-03-29T20:29:25.512Z,100431.06
2023-03-29T20:31:52.027Z,100433.53
2023-03-29T20:34:18.581Z,100428.50
2023-03-29T20:36:48.106Z,100426.88
2023-03-29T20:39:17.674Z,100421.22
2023-03-29T20:41:47.429Z,100424.81
2023-03-29T20:44:16.902Z,100428.13
2023-03-29T20:47:02.133Z,100429.00
2023-03-29T20:49:37.324Z,100417.28
2023-03-29T20:52:15.418Z,100423.88
2023-03-29T20:54:43.873Z,100422.84
2023-03-29T20:57:16.080Z,100420.19
2023-03-29T20:59:43.873Z,100411.78
2023-03-29T21:02:22.001Z,100409.59
2023-03-29T21:04:50.676Z,100406.34
2023-03-29T21:07:17.657Z,100413.25
2023-03-29T21:09:44.340Z,100416.91
2023-03-29T21:12:11.285Z,100402.06
2023-03-29T21:14:37.859Z,100395.84
2023-03-29T21:17:04.342Z,100409.69
2023-03-29T21:19:31.120Z,100409.63
2023-03-29T21:21:58.041Z,100406.25
2023-03-29T21:24:24.542Z,100404.88
2023-03-29T21:26:51.011Z,100400.97
2023-03-29T21:29:17.516Z,100392.63
2023-03-29T21:31:43.996Z,100390.84
2023-03-29T21:34:10.509Z,100389.47
2023-03-29T21:36:37.036Z,100392.75
2023-03-29T21:39:04.112Z,100383.22
2023-03-29T21:41:30.560Z,100376.72
2023-03-29T21:43:56.989Z,100379.34
2023-03-29T21:46:24.643Z,100375.19
2023-03-29T21:48:51.642Z,100374.00
2023-03-29T21:51:18.064Z,100373.13
2023-03-29T21:53:44.533Z,100365.81
2023-03-29T21:56:12.231Z,100370.03
2023-03-29T21:58:38.876Z,100385.50
2023-03-29T22:01:07.319Z,100383.91
2023-03-29T22:03:33.968Z,100374.66
2023-03-29T22:06:02.816Z,100369.69
2023-03-29T22:08:30.781Z,100371.16
2023-03-29T22:10:57.669Z,100371.63
2023-03-29T22:13:26.930Z,100375.78
2023-03-29T22:16:01.550Z,100373.19
2023-03-29T22:18:30.236Z,100364.25
2023-03-29T22:20:57.283Z,100362.66
2023-03-29T22:23:24.852Z,100367.28
2023-03-29T22:25:51.675Z,100363.75
2023-03-29T22:28:18.254Z,100353.56
2023-03-29T22:30:44.711Z,100353.84
2023-03-29T22:33:11.126Z,100348.53
2023-03-29T22:35:37.700Z,100338.25
2023-03-29T22:38:04.273Z,100332.59
2023-03-29T22:40:33.168Z,100326.69
2023-03-29T22:42:59.926Z,100323.25
2023-03-29T22:45:26.399Z,100330.28
2023-03-29T22:47:53.112Z,100326.53
2023-03-29T22:50:19.608Z,100300.13
2023-03-29T22:52:46.089Z,100274.59
2023-03-29T22:55:12.634Z,100243.72
2023-03-29T22:57:39.105Z,100251.06
2023-03-29T23:00:09.008Z,100260.59
2023-03-29T23:02:36.523Z,100254.28
2023-03-29T23:05:03.229Z,100269.25
2023-03-29T23:07:29.841Z,100289.56
2023-03-29T23:09:56.465Z,100297.81
2023-03-29T23:12:24.148Z,100289.44
2023-03-29T23:14:53.162Z,100296.16
2023-03-29T23:17:19.700Z,100284.22
2023-03-29T23:19:46.568Z,100285.03
2023-03-29T23:22:13.572Z,100279.28
2023-03-29T23:24:40.240Z,100265.31
2023-03-29T23:27:07.714Z,100252.63
2023-03-29T23:29:34.524Z,100257.16
2023-03-29T23:32:01.016Z,100260.16
2023-03-29T23:34:28.100Z,100242.56
2023-03-29T23:36:54.660Z,100249.72
2023-03-29T23:39:21.124Z,100235.84
2023-03-29T23:41:47.749Z,100231.81
2023-03-29T23:44:14.174Z,100250.38
2023-03-29T23:46:41.876Z,100247.16
2023-03-29T23:49:09.868Z,100235.91
2023-03-29T23:51:39.221Z,100220.81
2023-03-29T23:54:06.245Z,100221.84
2023-03-29T23:56:32.759Z,100220.16
2023-03-29T23:58:59.285Z,100219.63
